Flight Track Log - Related Links

Times and Time Zones

All times are in EDT time to prevent confusion due to time zone crossing. See the AAY655 flight status page for this flight to view local times or setup timezone preferences in your user account.

Time Position Orientation Groundspeed Altitude Reporting Facility
EDT Latitude Longitude Course Direction KTS MPH feet Rate Location/Type
Wed 07:34:24 PM 43.1167 -78.9667 334° Northwest 161 185 900  Level Buffalo TRACON
Wed 07:35:30 PM 43.1667 -79.0000 334° Northwest 271 312 3,800 2,578 Climbing Buffalo TRACON
Wed 07:36:32 PM 43.1694 -78.9083 88° East 264 304 6,400 2,323 Climbing Cleveland Center
Wed 07:37:34 PM 43.0981 -78.9006 175° South 256 295 8,600 1,902 Climbing Cleveland Center
Wed 07:38:35 PM 43.0342 -78.9153 190° South 258 297 10,300 2,000 Climbing Cleveland Center
Wed 07:39:37 PM 42.9519 -78.9342 190° South 294 338 12,700 1,984 Climbing Cleveland Center
Wed 07:40:39 PM 42.8464 -78.9717 195° South 325 374 14,400 1,839 Climbing Cleveland Center
Wed 07:41:41 PM 42.7519 -79.0056 195° South 347 399 16,500 1,902 Climbing Cleveland Center
Wed 07:42:42 PM 42.6572 -79.0506 199° South 357 411 18,300 1,610 Climbing Cleveland Center
Wed 07:43:44 PM 42.5558 -79.0953 198° South 378 435 19,800 1,645 Climbing Cleveland Center
Wed 07:44:46 PM 42.4503 -79.1383 197° South 394 453 21,700 1,694 Climbing Cleveland Center
Wed 07:45:48 PM 42.3436 -79.1847 198° South 400 460 23,300 2,177 Climbing Cleveland Center
Wed 07:46:50 PM 42.2169 -79.2464 200° South 406 467 26,200 2,195 Climbing Cleveland Center
Wed 07:47:51 PM 42.1142 -79.2931 199° South 394 453 27,800 1,366 Climbing Cleveland Center
Wed 07:48:53 PM 42.0108 -79.3389 198° South 394 453 29,000 1,113 Climbing Cleveland Center
Wed 07:49:55 PM 41.9069 -79.3833 198° South 394 453 30,100 1,161 Climbing Cleveland Center
Wed 07:50:57 PM 41.8025 -79.4328 199° South 396 456 31,400 919 Climbing Cleveland Center
Wed 07:51:59 PM 41.6800 -79.4897 199° South 393 452 32,000 290 Climbing Cleveland Center
Wed 07:53:01 PM 41.5778 -79.5342 198° South 393 452 32,000  Level Cleveland Center
Wed 07:54:03 PM 41.4736 -79.5778 197° South 393 452 32,000  Level Cleveland Center
Wed 07:55:04 PM 41.3800 -79.6200 199° South 393 452 32,000  Level Cleveland Center
Wed 07:56:06 PM 41.2703 -79.6700 199° South 392 451 32,000  Level Cleveland Center
Wed 07:57:08 PM 41.1478 -79.7225 198° South 390 449 32,000  Level Cleveland Center
Wed 07:58:10 PM 41.0539 -79.7631 198° South 385 443 32,000  Level Cleveland Center
Wed 07:59:12 PM 40.9536 -79.8061 198° South 381 438 32,000  Level Cleveland Center
Wed 08:00:14 PM 40.8544 -79.8506 199° South 381 438 32,000  Level Cleveland Center
Wed 08:01:15 PM 40.7558 -79.8933 198° South 375 432 32,000  Level Cleveland Center
Wed 08:02:17 PM 40.6572 -79.9347 198° South 373 429 32,000  Level Cleveland Center
Wed 08:03:19 PM 40.5381 -79.9861 198° South 373 429 32,000  Level Cleveland Center
Wed 08:04:21 PM 40.4414 -80.0283 198° South 371 427 32,000  Level Cleveland Center
Wed 08:05:23 PM 40.3444 -80.0700 198° South 364 419 32,000  Level Cleveland Center
Wed 08:06:24 PM 40.2417 -80.1136 198° South 362 417 32,000 341 Level Cleveland Center
Wed 08:07:26 PM 40.1444 -80.1544 198° South 363 418 32,700 484 Climbing Cleveland Center
Wed 08:08:28 PM 40.0475 -80.1978 199° South 364 419 33,000 145 Climbing Cleveland Center
Wed 08:09:30 PM 39.9514 -80.2378 198° South 365 420 33,000 97 Level Cleveland Center
Wed 08:10:32 PM 39.8531 -80.2786 198° South 366 421 33,200 435 Climbing Cleveland Center
Wed 08:11:34 PM 39.7536 -80.3169 197° South 372 428 33,900 390 Climbing Cleveland Center
Wed 08:12:35 PM 39.6364 -80.3681 199° South 371 427 34,000 49 Climbing Cleveland Center
Wed 08:13:37 PM 39.5381 -80.4100 198° South 372 428 34,000  Level Cleveland Center
Wed 08:14:36 PM 39.4542 -80.4456 198° South 372 428 34,000  Level Indianapolis Center
Wed 08:15:38 PM 39.3339 -80.4944 197° South 374 430 34,000  Level Indianapolis Center
Wed 08:16:39 PM 39.2347 -80.5350 198° South 374 430 34,000  Level Indianapolis Center
Wed 08:17:41 PM 39.1344 -80.5778 198° South 374 430 34,000  Level Indianapolis Center
Wed 08:18:42 PM 39.0361 -80.6181 198° South 374 430 34,000  Level Indianapolis Center
Wed 08:19:44 PM 38.9361 -80.6581 197° South 374 430 34,000  Level Indianapolis Center
Wed 08:20:46 PM 38.8342 -80.6989 197° South 376 433 34,000  Level Indianapolis Center
Wed 08:21:47 PM 38.7342 -80.7400 198° South 378 435 34,000  Level Indianapolis Center
Wed 08:22:49 PM 38.6336 -80.7817 198° South 377 434 34,000  Level Indianapolis Center
Wed 08:23:50 PM 38.5328 -80.8222 197° South 377 434 34,000  Level Indianapolis Center
Wed 08:24:52 PM 38.4339 -80.8625 198° South 377 434 34,000  Level Indianapolis Center
Wed 08:25:53 PM 38.3150 -80.9094 197° South 374 430 34,000  Level Indianapolis Center
Wed 08:26:55 PM 38.2167 -80.9494 198° South 373 429 34,000  Level Indianapolis Center
Wed 08:27:56 PM 38.1167 -80.9900 198° South 373 429 34,000  Level Indianapolis Center
Wed 08:28:58 PM 38.0192 -81.0294 198° South 372 428 34,000  Level Indianapolis Center
Wed 08:29:59 PM 37.9217 -81.0658 196° South 365 420 34,000  Level Indianapolis Center
Wed 08:31:01 PM 37.8242 -81.1042 197° South 365 420 34,000  Level Indianapolis Center
Wed 08:32:02 PM 37.7103 -81.1269 189° South 393 452 34,000  Level Indianapolis Center
Wed 08:33:03 PM 37.6011 -81.1222 178° South 405 466 34,000  Level Indianapolis Center
Wed 08:34:05 PM 37.4922 -81.1156 177° South 405 466 34,000  Level Indianapolis Center
Wed 08:35:06 PM 37.3822 -81.1139 179° South 405 466 34,000  Level Indianapolis Center
Wed 08:36:08 PM 37.2489 -81.1131 180° South 406 467 34,000  Level Indianapolis Center
Wed 08:37:09 PM 37.1372 -81.1117 179° South 409 471 34,000  Level Indianapolis Center
Wed 08:38:10 PM 37.0267 -81.1100 179° South 409 471 34,000  Level Indianapolis Center
Wed 08:39:11 PM 36.9147 -81.1058 178° South 410 472 34,000  Level Indianapolis Center
Wed 08:40:13 PM 36.7828 -81.1039 179° South 409 471 34,000  Level Indianapolis Center
Wed 08:41:14 PM 36.6694 -81.1031 180° South 411 473 34,000  Level Indianapolis Center
Wed 08:42:16 PM 36.5561 -81.1017 179° South 414 476 34,000  Level Indianapolis Center
Wed 08:43:16 PM 36.4436 -81.0981 179° South 415 478 34,000  Level Indianapolis Center
Wed 08:44:18 PM 36.3081 -81.0958 179° South 415 478 34,000  Level Indianapolis Center
Wed 08:45:34 PM 36.1711 -81.0936 179° South 421 484 34,000  Level Atlanta Center
Wed 08:46:34 PM 36.0522 -81.0931 180° South 421 484 34,000  Level Atlanta Center
Wed 08:47:34 PM 35.9269 -81.0897 179° South 421 484 34,000  Level Atlanta Center
Wed 08:48:34 PM 35.8119 -81.0864 179° South 421 484 34,000  Level Atlanta Center
Wed 08:49:34 PM 35.6953 -81.0828 179° South 421 484 34,000  Level Atlanta Center
Wed 08:50:34 PM 35.5742 -81.0794 179° South 421 484 34,000  Level Atlanta Center
Wed 08:51:34 PM 35.4572 -81.0811 181° South 426 490 34,000  Level Atlanta Center
Wed 08:52:34 PM 35.3425 -81.0828 181° South 421 484 34,000  Level Atlanta Center
Wed 08:53:34 PM 35.2236 -81.0794 179° South 416 479 34,000  Level Atlanta Center
Wed 08:55:50 PM 34.9622 -81.0739 179° South 424 488 34,000  Level Jacksonville Center
Wed 08:56:50 PM 34.8456 -81.0714 179° South 419 482 34,000  Level Jacksonville Center
Wed 08:57:50 PM 34.7286 -81.0739 181° South 419 482 34,000  Level Jacksonville Center
Wed 08:58:50 PM 34.6119 -81.0711 179° South 419 482 34,000  Level Jacksonville Center
Wed 08:59:50 PM 34.4950 -81.0686 179° South 419 482 34,000  Level Jacksonville Center
Wed 09:00:50 PM 34.3739 -81.0636 178° South 424 488 34,000  Level Jacksonville Center
Wed 09:01:50 PM 34.2592 -81.0586 178° South 424 488 34,000  Level Jacksonville Center
Wed 09:02:50 PM 34.1422 -81.0583 180° South 419 482 34,000  Level Jacksonville Center
Wed 09:03:50 PM 34.0192 -81.0586 180° South 430 495 34,000  Level Jacksonville Center
Wed 09:04:50 PM 33.8981 -81.0536 178° South 435 501 34,000  Level Jacksonville Center
Wed 09:05:50 PM 33.7814 -81.0586 182° South 435 501 34,000  Level Jacksonville Center
Wed 09:06:50 PM 33.6750 -81.0733 187° South 435 501 34,000  Level Jacksonville Center
Wed 09:07:51 PM 33.5564 -81.0856 185° South 430 495 34,000  Level Jacksonville Center
Wed 09:08:50 PM 33.4397 -81.0931 183° South 430 495 34,000  Level Jacksonville Center
Wed 09:09:50 PM 33.3208 -81.1028 184° South 430 495 34,000  Level Jacksonville Center
Wed 09:10:50 PM 33.2039 -81.1125 184° South 425 489 34,000  Level Jacksonville Center
Wed 09:11:50 PM 33.0853 -81.1250 185° South 425 489 34,000  Level Jacksonville Center
Wed 09:12:50 PM 32.9664 -81.1347 184° South 425 489 34,000  Level Jacksonville Center
Wed 09:13:50 PM 32.8475 -81.1419 183° South 425 489 34,000  Level Jacksonville Center
Wed 09:14:50 PM 32.7308 -81.1517 184° South 425 489 34,000  Level Jacksonville Center
Wed 09:15:50 PM 32.6036 -81.1639 185° South 425 489 34,000  Level Jacksonville Center
Wed 09:16:50 PM 32.4972 -81.1733 184° South 425 489 34,000  Level Jacksonville Center
Wed 09:17:50 PM 32.3742 -81.1806 183° South 425 489 34,000  Level Jacksonville Center
Wed 09:18:50 PM 32.2553 -81.1878 183° South 430 495 34,000  Level Jacksonville Center
Wed 09:19:50 PM 32.1364 -81.1997 185° South 430 495 34,000  Level Jacksonville Center
Wed 09:20:50 PM 32.0153 -81.1969 179° South 436 502 34,000  Level Jacksonville Center
Wed 09:21:50 PM 31.8817 -81.1897 177° South 441 507 34,000  Level Jacksonville Center
Wed 09:22:50 PM 31.7772 -81.1989 184° South 431 496 34,000  Level Jacksonville Center
Wed 09:23:50 PM 31.6439 -81.2208 188° South 431 496 34,000 -50 Level Jacksonville Center
Wed 09:24:50 PM 31.5253 -81.2400 188° South 431 496 33,900 -350 Descending Jacksonville Center
Wed 09:25:50 PM 31.4211 -81.2567 188° South 425 489 33,300 -650 Descending Jacksonville Center
Wed 09:26:50 PM 31.2878 -81.2783 188° South 430 495 32,600 -650 Descending Jacksonville Center
Wed 09:27:50 PM 31.1711 -81.2972 188° South 430 495 32,000 -900 Descending Jacksonville Center
Wed 09:28:50 PM 31.0522 -81.3189 189° South 430 495 30,800 -1,350 Descending Jacksonville Center
Wed 09:29:50 PM 30.9314 -81.3400 189° South 430 495 29,300 -1,400 Descending Jacksonville Center
Wed 09:30:50 PM 30.8106 -81.3614 189° South 430 495 28,000 -650 Descending Jacksonville Center
Wed 09:31:50 PM 30.7000 -81.3561 178° South 436 502 28,000  Level Jacksonville Center
Wed 09:32:50 PM 30.5700 -81.3317 171° South 455 524 28,000 -500 Level Jacksonville Center
Wed 09:33:50 PM 30.4444 -81.3047 170° South 466 536 27,000 -1,041 Descending Jacksonville Center
Wed 09:34:51 PM 30.3211 -81.2850 172° South 466 536 25,900 -1,400 Descending Jacksonville Center
Wed 09:35:50 PM 30.1997 -81.2678 173° South 461 531 24,200 -2,017 Descending Jacksonville Center
Wed 09:36:50 PM 30.0828 -81.2506 173° South 442 509 21,900 -2,300 Descending Jacksonville Center
Wed 09:37:50 PM 29.9675 -81.2286 171° South 432 497 19,600 -2,150 Descending Jacksonville Center
Wed 09:38:50 PM 29.8589 -81.2114 172° South 415 478 17,600 -2,108 Descending Jacksonville Center
Wed 09:39:04 PM 29.8272 -81.2022 166° South 384 442 17,000 -2,100 Descending Jacksonville Center
Wed 09:39:50 PM 29.7603 -81.1914 172° South 389 448 15,500 -2,111 Descending Jacksonville Center
Wed 09:39:58 PM 29.7311 -81.1897 177° South 368 423 15,100 -1,800 Descending Jacksonville Center
Wed 09:40:50 PM 29.6558 -81.1767 171° South 384 442 13,700 -1,672 Descending Jacksonville Center
Wed 09:40:59 PM 29.6308 -81.1722 171° South 366 421 13,400 -1,700 Descending Jacksonville Center
Wed 09:41:50 PM 29.5575 -81.1592 171° South 373 429 12,000 -1,672 Descending Jacksonville Center
Wed 09:42:00 PM 29.5303 -81.1525 168° South 365 420 11,700 -1,400 Descending Jacksonville Center
Wed 09:42:50 PM 29.4467 -81.1422 174° South 368 423 10,600 -1,100 Descending Jacksonville Center
Wed 09:43:00 PM 29.4300 -81.1447 187° South 356 410 10,600 -500 Level Jacksonville Center
Wed 09:43:50 PM 29.3528 -81.1508 184° South 347 399 10,100 -436 Descending Jacksonville Center
Wed 09:43:55 PM 29.3464 -81.1511 182° South 324 373 10,200 -1,000 Climbing Jacksonville Center
Wed 09:44:50 PM 29.2694 -81.1547 182° South 310 357 9,100 -1,304 Descending Jacksonville Center
Wed 09:45:50 PM 29.1881 -81.1611 184° South 304 350 7,700 -1,450 Descending Jacksonville Center
Wed 09:46:50 PM 29.1086 -81.1625 181° South 287 330 6,200 -1,400 Descending Jacksonville Center
Wed 09:47:50 PM 29.0336 -81.1683 184° South 287 330 4,900 -1,150 Descending Jacksonville Center
Wed 09:48:50 PM 28.9608 -81.1864 192° South 282 325 3,900 -662 Descending Jacksonville Center
Wed 09:50:24 PM 28.8833 -81.2500 216° Southwest 197 227 3,200 -662 Descending Orlando TRACON
Wed 09:51:24 PM 28.8500 -81.2833 221° Southwest 174 200 2,200 -900 Descending Orlando TRACON
Wed 09:52:24 PM 28.8000 -81.3167 210° Southwest 159 183 1,400 -800 Descending Orlando TRACON
Wed 09:54:00 PM 28.7667 -81.2333 199° South  Level FlightAware Approximate
Wed 10:01:00 PM 28.7770 -81.2349 199° South  Level Estimated
Wed 10:02:00 PM 28.7770 -81.2349 199° South  Level Estimated
Wed 10:03:00 PM 28.7770 -81.2349 199° South  Level Estimated
Wed 10:04:00 PM 28.7770 -81.2349 199° South  Level Estimated

Login

Don't have an account? Register now (free) for customized features, flight alerts, and more!